Estación Meteorológica Peña el Pijo (Robertgarden) [ 01/30/23 13:37:13 CET ]

Fecha Hora Presion(HPa) Temp (°C) Humedad % Rocio (°C) Viento ( m/s) Direccion Lluvia 1Hora(mm) Lluvia 24H(mm) LLuvia Total(mm)
2010-Oct-30 01:01:11 1006.500 12.5 61 5.2         169.90
2010-Oct-30 02:01:15 1006.900 11.4 68 5.7         169.90
2010-Oct-30 03:03:22 1006.300 10.1 70 4.9         169.90
2010-Oct-30 04:01:12 1006.500 9.2 70 4.0         169.90
2010-Oct-30 05:01:12 1006.000 8.1 72 3.4         169.90
2010-Oct-30 06:01:14 1006.100 7.1 74 2.8         169.90
2010-Oct-30 07:01:13 1006.000 7.6 71 2.7         169.90
2010-Oct-30 08:01:12 1006.100 7.0 72 2.3         169.90
2010-Oct-30 09:01:13 1006.200 7.1 73 2.6         169.90
2010-Oct-30 10:01:13 1006.300 10.3 64 3.8         169.90
2010-Oct-30 11:01:13 1006.400 10.3 61 3.1         169.90
2010-Oct-30 12:01:12 1006.200 10.7 62 3.7         169.90
2010-Oct-30 13:01:13 1005.600 11.5 57 3.2         169.90
2010-Oct-30 14:01:12 1004.900 13.8 54 4.6         169.90
2010-Oct-30 15:01:12 1004.700 11.6 62 4.5         169.90
2010-Oct-30 16:01:14 1004.000 11.8 66 5.6         169.90
2010-Oct-30 17:01:12 1003.500 11.4 73 6.7         169.90
2010-Oct-30 18:01:14 1002.900 10.7 75 6.5         169.90
2010-Oct-30 19:01:13 1003.000 10.8 73 6.2         169.90
2010-Oct-30 20:01:12 1002.400 9.9 76 5.8         169.90
2010-Oct-30 21:01:15 1001.900 10.3 75 6.0         169.90
2010-Oct-30 22:01:12 1001.700 10.2 75 6.0         169.90
2010-Oct-30 23:01:13 1000.600 8.4 83 5.7         169.90

Temperatura Máxima:13°    Temperatura Mínima:
Presión Máxima:1006.900 Hpa    Presión Mínima:1000.600 Hpa


Volver